Sand Lake, Florida
Current Conditions -  °F | °C
As of 1:53 AM on Saturday 29 Nov 2014 (Local Time) from KMCO Reporting Station
Clear Clear  
Wind Chill:   Ceiling: Unl
Heat Index:   Visibility: 10mi
Dew Point:   Wind: 7mph
Humidity: 86%   Direction: 350°N
Pressure: 30.27"   Gusts: NA
Location:  28.4565°N, 81.4676°W
Report Text: KMCO 290653Z 35006KT 10SM CLR 08/06 A3027 RMK AO2 SLP248 T00830061
Loading
Personal Weather Stations






























Interactive Weather Map New forecast layout! Learn more

10-Day Weather Forecast

Advertisements
Track Severe Weather on mobile